createdAt,value
2019-04-05T00:00:59.882Z,94.93
2019-04-05T00:02:00.104Z,94.93
2019-04-05T00:03:00.184Z,94.84
2019-04-05T00:04:00.389Z,95.12
2019-04-05T00:05:00.602Z,94.65
2019-04-05T00:06:00.807Z,94.84
2019-04-05T00:07:01.010Z,95.22
2019-04-05T00:08:01.209Z,95.22
2019-04-05T00:09:01.443Z,95.22
2019-04-05T00:10:01.547Z,95.60
2019-04-05T00:11:01.615Z,95.89
2019-04-05T00:12:01.833Z,95.89
2019-04-05T00:13:02.035Z,95.89
2019-04-05T00:14:02.260Z,95.70
2019-04-05T00:15:14.619Z,96.17
2019-04-05T00:16:02.645Z,95.32
2019-04-05T00:17:02.866Z,94.46
2019-04-05T00:18:03.061Z,94.65
2019-04-05T00:19:03.262Z,95.12
2019-04-05T00:20:03.469Z,95.98
2019-04-05T00:21:03.703Z,95.98
2019-04-05T00:22:03.896Z,96.26
2019-04-05T00:23:03.978Z,96.65
2019-04-05T00:24:04.206Z,96.74
2019-04-05T00:25:04.287Z,97.03
2019-04-05T00:26:04.497Z,96.74
2019-04-05T00:27:04.701Z,95.98
2019-04-05T00:28:04.900Z,96.46
2019-04-05T00:29:05.103Z,95.89
2019-04-05T00:30:05.336Z,96.74
2019-04-05T00:31:05.427Z,96.74
2019-04-05T00:32:05.656Z,96.74
2019-04-05T00:33:05.749Z,96.65
2019-04-05T00:34:05.959Z,96.36
2019-04-05T00:35:06.807Z,96.03
2019-04-05T00:36:06.257Z,96.36
2019-04-05T00:37:06.471Z,96.84
2019-04-05T00:38:06.701Z,96.94
2019-04-05T00:39:06.794Z,97.03
2019-04-05T00:40:07.003Z,96.94
2019-04-05T00:41:07.208Z,96.36
2019-04-05T00:42:07.448Z,96.46
2019-04-05T00:43:07.536Z,96.74
2019-04-05T00:44:07.757Z,96.84
2019-04-05T00:45:07.944Z,97.31
2019-04-05T00:46:08.078Z,96.94
2019-04-05T00:47:08.351Z,97.41
2019-04-05T00:48:08.559Z,97.41
2019-04-05T00:49:08.759Z,97.13
2019-04-05T00:50:08.966Z,97.60
2019-04-05T00:51:09.173Z,97.50
2019-04-05T00:52:10.268Z,97.69
2019-04-05T00:53:10.284Z,97.60
2019-04-05T00:54:09.739Z,97.88
2019-04-05T00:55:09.878Z,97.88
2019-04-05T00:56:10.149Z,97.98
2019-04-05T00:57:10.344Z,98.46
2019-04-05T00:58:10.506Z,98.27
2019-04-05T00:59:10.746Z,98.83
2019-04-05T01:00:12.320Z,98.36
2019-04-05T01:01:13.658Z,98.65
2019-04-05T01:02:14.121Z,98.36
2019-04-05T01:03:13.219Z,97.88
2019-04-05T01:04:13.002Z,97.69
2019-04-05T01:05:15.657Z,97.31
2019-04-05T01:06:13.281Z,97.50
2019-04-05T01:07:13.941Z,97.60
2019-04-05T01:08:12.253Z,97.60
2019-04-05T01:09:12.742Z,97.69
2019-04-05T01:10:12.500Z,97.98
2019-04-05T01:11:12.643Z,98.08
2019-04-05T01:12:12.815Z,98.46
2019-04-05T01:13:13.004Z,98.46
2019-04-05T01:14:13.165Z,98.65
2019-04-05T01:15:13.284Z,98.17
2019-04-05T01:16:13.478Z,98.83
2019-04-05T01:17:24.408Z,98.74
2019-04-05T01:18:13.828Z,98.17
2019-04-05T01:19:13.989Z,97.88
2019-04-05T01:20:14.135Z,98.17
2019-04-05T01:21:14.304Z,98.46
2019-04-05T01:22:14.491Z,97.69
2019-04-05T01:23:14.624Z,97.22
2019-04-05T01:24:14.760Z,97.41
2019-04-05T01:25:14.894Z,97.69
2019-04-05T01:26:15.054Z,97.69
2019-04-05T01:27:15.293Z,98.74
2019-04-05T01:28:15.414Z,98.55
2019-04-05T01:29:15.588Z,98.36
2019-04-05T01:30:15.743Z,98.08
2019-04-05T01:31:15.873Z,98.17
2019-04-05T01:32:16.013Z,98.27
2019-04-05T01:33:16.133Z,98.17
2019-04-05T01:34:16.281Z,98.27
2019-04-05T01:35:16.426Z,97.41
2019-04-05T01:36:16.558Z,97.79
2019-04-05T01:37:16.679Z,98.46
2019-04-05T01:38:16.829Z,98.46
2019-04-05T01:39:16.983Z,98.55
2019-04-05T01:40:17.123Z,98.36
2019-04-05T01:41:17.225Z,98.83
2019-04-05T01:42:17.398Z,98.27
2019-04-05T01:43:17.541Z,98.27
2019-04-05T01:44:17.694Z,97.79
2019-04-05T01:45:17.835Z,97.98
2019-04-05T01:46:17.987Z,97.79
2019-04-05T01:47:18.151Z,98.46
2019-04-05T01:48:18.301Z,98.65
2019-04-05T01:49:18.506Z,98.46
2019-04-05T01:50:18.649Z,97.88
2019-04-05T01:51:18.801Z,97.69
2019-04-05T01:52:18.973Z,97.79
2019-04-05T01:53:19.077Z,97.69
2019-04-05T01:54:19.232Z,97.41
2019-04-05T01:55:19.396Z,96.74
2019-04-05T01:56:19.534Z,97.31
2019-04-05T01:57:19.660Z,97.98
2019-04-05T01:58:19.806Z,97.69
2019-04-05T01:59:19.961Z,97.31
2019-04-05T02:00:20.021Z,97.60
2019-04-05T02:01:20.226Z,97.50
2019-04-05T02:02:20.421Z,97.31
2019-04-05T02:03:20.623Z,97.31
2019-04-05T02:04:20.781Z,96.94
2019-04-05T02:05:20.955Z,96.65
2019-04-05T02:06:21.108Z,97.13
2019-04-05T02:07:21.258Z,97.13
2019-04-05T02:08:21.392Z,97.88
2019-04-05T02:09:21.569Z,97.79
2019-04-05T02:10:21.718Z,97.69
2019-04-05T02:11:21.877Z,97.69
2019-04-05T02:12:22.020Z,97.69
2019-04-05T02:13:22.185Z,97.50
2019-04-05T02:14:22.347Z,96.94
2019-04-05T02:15:22.488Z,96.84
2019-04-05T02:16:22.625Z,95.98
2019-04-05T02:17:22.801Z,96.08
2019-04-05T02:18:22.968Z,96.74
2019-04-05T02:19:23.108Z,96.55
2019-04-05T02:20:23.287Z,96.74
2019-04-05T02:21:23.442Z,96.65
2019-04-05T02:22:23.591Z,95.79
2019-04-05T02:23:23.728Z,96.08
2019-04-05T02:24:23.859Z,96.17
2019-04-05T02:25:24.009Z,96.74
2019-04-05T02:26:24.076Z,97.88
2019-04-05T02:27:24.269Z,97.50
2019-04-05T02:28:25.513Z,97.22
2019-04-05T02:29:24.576Z,96.94
2019-04-05T02:30:24.717Z,96.84
2019-04-05T02:31:24.832Z,97.03
2019-04-05T02:32:25.053Z,97.03
2019-04-05T02:33:25.210Z,95.98
2019-04-05T02:34:25.339Z,95.51
2019-04-05T02:35:25.489Z,95.32
2019-04-05T02:36:25.625Z,95.22
2019-04-05T02:37:25.787Z,95.12
2019-04-05T02:38:25.945Z,95.60
2019-04-05T02:39:26.117Z,95.98
2019-04-05T02:40:26.278Z,95.89
2019-04-05T02:41:26.425Z,95.32
2019-04-05T02:42:26.581Z,95.22
2019-04-05T02:43:26.653Z,95.60
2019-04-05T02:44:26.883Z,96.26
2019-04-05T02:45:27.021Z,96.17
2019-04-05T02:46:27.178Z,95.98
2019-04-05T02:47:27.338Z,95.70
2019-04-05T02:48:27.497Z,96.36
2019-04-05T02:49:27.673Z,96.26
2019-04-05T02:50:27.839Z,96.17
2019-04-05T02:51:28.110Z,96.26
2019-04-05T02:52:28.231Z,96.55
2019-04-05T02:53:28.334Z,96.46
2019-04-05T02:54:28.505Z,96.46
2019-04-05T02:55:28.672Z,96.46
2019-04-05T02:56:28.860Z,96.74
2019-04-05T02:57:28.993Z,96.74
2019-04-05T02:58:29.173Z,96.94
2019-04-05T02:59:29.328Z,96.55
2019-04-05T03:00:29.475Z,95.98
2019-04-05T03:01:29.639Z,94.46
2019-04-05T03:02:29.884Z,94.93
2019-04-05T03:03:30.021Z,95.41
2019-04-05T03:04:30.166Z,95.32
2019-04-05T03:05:30.374Z,95.12
2019-04-05T03:06:30.528Z,95.22
2019-04-05T03:07:30.691Z,95.22
2019-04-05T03:08:30.880Z,95.22
2019-04-05T03:09:31.052Z,95.51
2019-04-05T03:10:31.198Z,95.98
2019-04-05T03:11:31.334Z,96.17
2019-04-05T03:12:31.503Z,96.17
2019-04-05T03:13:31.652Z,96.17
2019-04-05T03:14:31.810Z,95.70
2019-04-05T03:15:32.388Z,95.51
2019-04-05T03:16:40.774Z,94.56
2019-04-05T03:17:32.259Z,94.84
2019-04-05T03:18:32.447Z,94.93
2019-04-05T03:19:32.636Z,94.84
2019-04-05T03:20:32.824Z,95.03
2019-04-05T03:21:32.989Z,95.32
2019-04-05T03:22:33.134Z,95.70
2019-04-05T03:23:33.343Z,96.46
2019-04-05T03:24:33.499Z,96.46
2019-04-05T03:25:33.672Z,96.17
2019-04-05T03:26:33.884Z,95.98
2019-04-05T03:27:33.901Z,96.08
2019-04-05T03:28:34.093Z,95.60
2019-04-05T03:29:34.235Z,95.98
2019-04-05T03:30:34.393Z,96.17
2019-04-05T03:31:34.543Z,95.22
2019-04-05T03:32:34.699Z,95.70
2019-04-05T03:33:34.874Z,95.98
2019-04-05T03:34:35.009Z,96.36
2019-04-05T03:35:35.168Z,96.26
2019-04-05T03:36:35.309Z,95.51
2019-04-05T03:37:35.472Z,95.41
2019-04-05T03:38:35.605Z,95.79
2019-04-05T03:39:35.768Z,95.70
2019-04-05T03:40:35.922Z,95.70
2019-04-05T03:41:36.131Z,96.17
2019-04-05T03:42:36.338Z,96.74
2019-04-05T03:43:36.493Z,96.65
2019-04-05T03:44:36.681Z,95.70
2019-04-05T03:45:36.832Z,95.22
2019-04-05T03:46:36.988Z,95.22
2019-04-05T03:47:37.165Z,94.65
2019-04-05T03:48:37.353Z,94.84
2019-04-05T03:49:37.505Z,94.65
2019-04-05T03:50:37.715Z,94.74
2019-04-05T03:51:37.805Z,94.84
2019-04-05T03:52:38.069Z,95.22
2019-04-05T03:53:38.197Z,95.22
2019-04-05T03:54:38.232Z,94.65
2019-04-05T03:55:38.390Z,94.93
2019-04-05T03:56:38.604Z,95.12
2019-04-05T03:57:38.714Z,96.17
2019-04-05T03:58:38.907Z,95.70
2019-04-05T03:59:39.065Z,95.98
2019-04-05T04:00:39.238Z,96.17
2019-04-05T04:01:39.337Z,96.17
2019-04-05T04:02:39.516Z,95.51
2019-04-05T04:03:39.666Z,94.84
2019-04-05T04:04:39.884Z,95.03
2019-04-05T04:05:40.105Z,94.65
2019-04-05T04:06:40.148Z,94.84
2019-04-05T04:07:40.335Z,95.70
2019-04-05T04:08:40.514Z,95.70
2019-04-05T04:09:40.696Z,96.08
2019-04-05T04:10:40.837Z,95.79
2019-04-05T04:11:41.077Z,95.70
2019-04-05T04:12:41.270Z,95.22
2019-04-05T04:13:41.482Z,95.22
2019-04-05T04:14:41.687Z,95.03
2019-04-05T04:15:41.838Z,95.03
2019-04-05T04:16:42.495Z,94.93
2019-04-05T04:17:43.664Z,95.03
2019-04-05T04:18:43.957Z,95.98
2019-04-05T04:19:43.272Z,95.79
2019-04-05T04:20:43.237Z,95.32
2019-04-05T04:21:44.163Z,95.03
2019-04-05T04:22:48.425Z,95.12
2019-04-05T04:23:44.965Z,95.60
2019-04-05T04:24:43.998Z,95.89
2019-04-05T04:25:45.122Z,95.98
2019-04-05T04:26:44.711Z,95.79
2019-04-05T04:27:44.702Z,95.98
2019-04-05T04:28:44.352Z,96.26
2019-04-05T04:29:44.938Z,96.26
2019-04-05T04:30:45.387Z,96.17
2019-04-05T04:31:45.205Z,96.46
2019-04-05T04:32:46.779Z,96.46
2019-04-05T04:33:45.082Z,96.17
2019-04-05T04:34:45.738Z,96.08
2019-04-05T04:35:44.908Z,95.70
2019-04-05T04:36:45.106Z,96.17
2019-04-05T04:37:45.046Z,95.12
2019-04-05T04:38:45.253Z,95.70
2019-04-05T04:39:45.400Z,96.17
2019-04-05T04:40:45.778Z,96.26
2019-04-05T04:41:45.969Z,95.98
2019-04-05T04:42:45.882Z,96.17
2019-04-05T04:43:45.986Z,96.08
2019-04-05T04:44:46.358Z,95.79
2019-04-05T04:45:46.458Z,95.51
2019-04-05T04:46:48.084Z,95.98
2019-04-05T04:47:46.747Z,96.46
2019-04-05T04:48:46.964Z,95.98
2019-04-05T04:49:47.125Z,96.26
2019-04-05T04:50:47.226Z,96.17
2019-04-05T04:51:47.444Z,96.74
2019-04-05T04:52:47.673Z,96.46
2019-04-05T04:53:47.665Z,96.65
2019-04-05T04:54:50.429Z,96.74
2019-04-05T04:55:50.459Z,96.94
2019-04-05T04:56:49.984Z,96.65
2019-04-05T04:57:49.861Z,96.74
2019-04-05T04:58:49.254Z,96.84
2019-04-05T04:59:49.526Z,96.65
2019-04-05T05:00:49.835Z,96.46
2019-04-05T05:01:49.520Z,96.17
2019-04-05T05:02:49.339Z,95.89
2019-04-05T05:03:49.437Z,95.98
2019-04-05T05:04:49.722Z,96.26
2019-04-05T05:05:50.101Z,96.26
2019-04-05T05:06:51.817Z,96.46
2019-04-05T05:07:50.843Z,96.26
2019-04-05T05:08:51.245Z,95.60
2019-04-05T05:09:51.213Z,95.89
2019-04-05T05:10:51.587Z,96.08
2019-04-05T05:11:51.675Z,95.70
2019-04-05T05:12:51.981Z,96.26
2019-04-05T05:13:52.055Z,96.36
2019-04-05T05:14:52.414Z,96.36
2019-04-05T05:15:52.813Z,95.98
2019-04-05T05:16:52.161Z,96.17
2019-04-05T05:17:58.655Z,95.98
2019-04-05T05:18:52.094Z,95.98
2019-04-05T05:19:52.220Z,96.26
2019-04-05T05:20:52.352Z,95.98
2019-04-05T05:21:52.469Z,95.98
2019-04-05T05:22:52.977Z,95.70
2019-04-05T05:23:52.843Z,95.70
2019-04-05T05:24:54.385Z,95.98
2019-04-05T05:25:54.894Z,96.26
2019-04-05T05:26:53.274Z,95.98
2019-04-05T05:27:55.033Z,96.17
2019-04-05T05:28:54.484Z,96.55
2019-04-05T05:29:54.865Z,96.17
2019-04-05T05:30:55.573Z,96.36
2019-04-05T05:31:55.924Z,97.03
2019-04-05T05:32:54.364Z,96.94
2019-04-05T05:33:54.607Z,96.94
2019-04-05T05:35:01.964Z,96.46
2019-04-05T05:35:56.541Z,96.36
2019-04-05T05:36:56.919Z,96.94
2019-04-05T05:37:55.217Z,96.36
2019-04-05T05:38:56.391Z,97.03
2019-04-05T05:39:55.574Z,97.60
2019-04-05T05:40:55.735Z,97.88
2019-04-05T05:41:55.824Z,97.13
2019-04-05T05:42:55.915Z,97.60
2019-04-05T05:43:56.035Z,96.84
2019-04-05T05:44:56.279Z,96.46
2019-04-05T05:45:56.428Z,96.17
2019-04-05T05:46:56.584Z,95.79
2019-04-05T05:47:56.722Z,95.41
2019-04-05T05:48:56.812Z,94.74
2019-04-05T05:49:56.975Z,94.65
2019-04-05T05:50:57.516Z,95.12
2019-04-05T05:51:57.241Z,95.79
2019-04-05T05:52:57.461Z,95.98
2019-04-05T05:53:57.663Z,95.12
2019-04-05T05:54:57.778Z,95.03
2019-04-05T05:55:57.896Z,95.32
2019-04-05T05:56:58.071Z,95.51
2019-04-05T05:57:58.811Z,95.22
2019-04-05T05:58:59.642Z,94.93
2019-04-05T06:00:00.464Z,95.79
2019-04-05T06:00:58.721Z,95.70
2019-04-05T06:01:58.769Z,96.46
2019-04-05T06:02:58.950Z,95.60
2019-04-05T06:03:59.137Z,95.79
2019-04-05T06:04:59.313Z,95.60
2019-04-05T06:06:04.588Z,96.26
2019-04-05T06:06:59.696Z,96.08
2019-04-05T06:08:01.003Z,96.65
2019-04-05T06:09:00.110Z,96.08
2019-04-05T06:10:00.467Z,95.79
2019-04-05T06:11:00.581Z,95.03
2019-04-05T06:12:00.717Z,95.41
2019-04-05T06:13:00.735Z,95.32
2019-04-05T06:14:01.074Z,95.12
2019-04-05T06:15:01.155Z,95.03
2019-04-05T06:16:01.350Z,96.17
2019-04-05T06:17:01.622Z,95.22
2019-04-05T06:18:04.937Z,94.74
2019-04-05T06:19:01.969Z,95.22
2019-04-05T06:20:02.171Z,95.32
2019-04-05T06:21:03.513Z,94.89
2019-04-05T06:22:02.518Z,94.74
2019-04-05T06:23:02.659Z,94.60
2019-04-05T06:24:05.121Z,94.89
2019-04-05T06:25:02.822Z,94.84
2019-04-05T06:26:03.062Z,94.70
2019-04-05T06:27:03.187Z,94.60
2019-04-05T06:28:03.199Z,94.60
2019-04-05T06:29:03.431Z,94.70
2019-04-05T06:30:03.587Z,94.32
2019-04-05T06:31:04.006Z,94.70
2019-04-05T06:32:04.075Z,94.98
2019-04-05T06:33:04.093Z,94.84
2019-04-05T06:34:04.451Z,94.74
2019-04-05T06:35:04.313Z,94.84
2019-04-05T06:36:04.419Z,94.42
2019-04-05T06:37:04.653Z,94.51
2019-04-05T06:38:04.769Z,94.79
2019-04-05T06:39:04.854Z,94.42
2019-04-05T06:40:05.129Z,94.79
2019-04-05T06:41:05.305Z,94.22
2019-04-05T06:42:05.515Z,94.60
2019-04-05T06:43:06.916Z,94.79
2019-04-05T06:44:05.695Z,94.79
2019-04-05T06:45:06.060Z,94.03
2019-04-05T06:46:06.148Z,93.94
2019-04-05T06:47:06.257Z,93.74
2019-04-05T06:48:18.389Z,93.74
2019-04-05T06:49:06.540Z,94.03
2019-04-05T06:50:06.758Z,94.32
2019-04-05T06:51:07.101Z,94.60
2019-04-05T06:52:07.011Z,94.70
2019-04-05T06:53:07.220Z,93.94
2019-04-05T06:54:07.410Z,94.22
2019-04-05T06:55:07.609Z,93.84
2019-04-05T06:56:07.932Z,94.03
2019-04-05T06:57:07.909Z,94.70
2019-04-05T06:58:10.385Z,94.79
2019-04-05T06:59:08.361Z,94.70
2019-04-05T07:00:08.477Z,94.51
2019-04-05T07:01:08.687Z,94.22
2019-04-05T07:02:09.497Z,93.84
2019-04-05T07:03:09.240Z,93.46
2019-04-05T07:04:10.081Z,93.55
2019-04-05T07:05:09.576Z,93.84
2019-04-05T07:06:09.680Z,93.84
2019-04-05T07:07:09.823Z,93.37
2019-04-05T07:08:09.926Z,93.08
2019-04-05T07:09:10.087Z,93.37
2019-04-05T07:10:10.395Z,93.74
2019-04-05T07:11:10.541Z,93.74
2019-04-05T07:12:10.722Z,93.46
2019-04-05T07:13:10.783Z,93.46
2019-04-05T07:14:11.009Z,93.46
2019-04-05T07:15:11.411Z,93.18
2019-04-05T07:16:11.748Z,92.79
2019-04-05T07:17:11.464Z,92.79
2019-04-05T07:18:11.604Z,92.99
2019-04-05T07:19:12.410Z,93.08
2019-04-05T07:20:12.430Z,93.94
2019-04-05T07:21:11.955Z,93.37
2019-04-05T07:22:12.091Z,93.08
2019-04-05T07:23:12.309Z,93.65
2019-04-05T07:24:12.465Z,93.94
2019-04-05T07:25:12.824Z,93.94
2019-04-05T07:26:12.792Z,93.65
2019-04-05T07:27:13.004Z,93.94
2019-04-05T07:28:13.127Z,93.65
2019-04-05T07:29:13.355Z,93.37
2019-04-05T07:30:13.981Z,93.55
2019-04-05T07:31:14.008Z,94.03
2019-04-05T07:32:13.849Z,93.94
2019-04-05T07:33:14.164Z,94.79
2019-04-05T07:34:14.741Z,94.03
2019-04-05T07:35:14.746Z,94.13
2019-04-05T07:36:14.766Z,94.03
2019-04-05T07:37:15.256Z,94.03
2019-04-05T07:38:14.972Z,93.08
2019-04-05T07:39:15.202Z,93.18
2019-04-05T07:40:15.342Z,93.27
2019-04-05T07:41:15.512Z,92.89
2019-04-05T07:42:15.672Z,92.74
2019-04-05T07:43:16.072Z,93.08
2019-04-05T07:44:15.993Z,92.55
2019-04-05T07:45:16.692Z,92.18
2019-04-05T07:46:16.260Z,92.22
2019-04-05T07:47:17.633Z,92.13
2019-04-05T07:48:17.934Z,92.60
2019-04-05T07:49:16.775Z,92.89
2019-04-05T07:50:16.771Z,92.99
2019-04-05T07:51:17.215Z,92.89
2019-04-05T07:52:17.235Z,92.99
2019-04-05T07:53:17.501Z,92.89
2019-04-05T07:54:18.887Z,92.79
2019-04-05T07:55:17.585Z,92.70
2019-04-05T07:56:17.997Z,92.32
2019-04-05T07:57:17.881Z,92.41
2019-04-05T07:58:18.071Z,92.41
2019-04-05T07:59:20.779Z,92.46
2019-04-05T08:00:18.396Z,92.18
2019-04-05T08:01:18.531Z,92.32
2019-04-05T08:02:19.447Z,92.27
2019-04-05T08:03:19.809Z,91.70
2019-04-05T08:04:19.289Z,92.36
2019-04-05T08:05:19.945Z,92.08
2019-04-05T08:06:20.281Z,92.55
2019-04-05T08:07:19.841Z,92.55
2019-04-05T08:08:21.543Z,92.74
2019-04-05T08:09:21.536Z,92.08
2019-04-05T08:10:22.874Z,92.46
2019-04-05T08:11:20.875Z,91.99
2019-04-05T08:12:21.498Z,92.55
2019-04-05T08:13:21.967Z,92.46
2019-04-05T08:14:21.934Z,92.08
2019-04-05T08:15:21.908Z,91.99
2019-04-05T08:16:22.995Z,91.70
2019-04-05T08:17:22.140Z,92.08
2019-04-05T08:18:22.171Z,92.18
2019-04-05T08:19:22.818Z,92.74
2019-04-05T08:20:25.140Z,92.46
2019-04-05T08:21:23.291Z,92.46
2019-04-05T08:22:24.380Z,91.79
2019-04-05T08:23:22.740Z,91.31
2019-04-05T08:24:23.691Z,91.41
2019-04-05T08:25:23.986Z,91.41
2019-04-05T08:26:25.490Z,91.31
2019-04-05T08:27:22.903Z,91.60
2019-04-05T08:28:24.661Z,91.31
2019-04-05T08:29:23.689Z,91.70
2019-04-05T08:30:23.719Z,91.31
2019-04-05T08:31:24.683Z,91.41
2019-04-05T08:32:24.434Z,91.41
2019-04-05T08:33:23.790Z,91.41
2019-04-05T08:34:24.712Z,91.03
2019-04-05T08:35:25.357Z,91.13
2019-04-05T08:36:24.268Z,91.51
2019-04-05T08:37:24.439Z,91.22
2019-04-05T08:38:24.725Z,91.60
2019-04-05T08:39:24.770Z,91.79
2019-04-05T08:40:25.106Z,91.41
2019-04-05T08:41:25.045Z,91.41
2019-04-05T08:42:25.083Z,91.13
2019-04-05T08:43:25.346Z,90.94
2019-04-05T08:44:26.206Z,91.13
2019-04-05T08:45:25.659Z,91.31
2019-04-05T08:46:25.789Z,91.31
2019-04-05T08:47:27.497Z,91.41
2019-04-05T08:48:26.065Z,91.41
2019-04-05T08:49:26.190Z,91.13
2019-04-05T08:50:26.389Z,91.51
2019-04-05T08:51:26.505Z,91.41
2019-04-05T08:52:27.115Z,91.51
2019-04-05T08:53:26.850Z,90.84
2019-04-05T08:54:32.766Z,90.36
2019-04-05T08:55:27.106Z,90.84
2019-04-05T08:56:27.341Z,90.84
2019-04-05T08:57:27.482Z,90.56
2019-04-05T08:58:33.199Z,90.65
2019-04-05T08:59:27.743Z,90.75
2019-04-05T09:00:27.900Z,90.65
2019-04-05T09:01:28.135Z,90.36
2019-04-05T09:02:28.168Z,90.84
2019-04-05T09:03:28.290Z,90.08
2019-04-05T09:04:28.381Z,90.36
2019-04-05T09:05:28.593Z,90.56
2019-04-05T09:06:28.797Z,91.13
2019-04-05T09:07:28.992Z,90.94
2019-04-05T09:08:30.034Z,91.03
2019-04-05T09:09:29.355Z,90.75
2019-04-05T09:10:29.499Z,91.60
2019-04-05T09:11:29.609Z,91.60
2019-04-05T09:12:29.882Z,91.41
2019-04-05T09:13:29.952Z,91.41
2019-04-05T09:14:30.160Z,91.60
2019-04-05T09:15:30.391Z,91.41
2019-04-05T09:16:30.501Z,91.31
2019-04-05T09:17:30.696Z,91.51
2019-04-05T09:18:30.922Z,91.31
2019-04-05T09:19:31.006Z,91.70
2019-04-05T09:20:31.162Z,90.75
2019-04-05T09:21:31.446Z,91.41
2019-04-05T09:22:31.856Z,91.70
2019-04-05T09:23:31.633Z,91.41
2019-04-05T09:24:31.788Z,91.31
2019-04-05T09:25:31.967Z,91.51
2019-04-05T09:26:32.133Z,91.70
2019-04-05T09:27:32.319Z,91.60
2019-04-05T09:28:32.498Z,91.03
2019-04-05T09:29:32.672Z,91.51
2019-04-05T09:30:32.824Z,91.22
2019-04-05T09:31:33.238Z,90.84
2019-04-05T09:32:33.060Z,90.84
2019-04-05T09:33:33.233Z,91.60
2019-04-05T09:34:33.388Z,91.41
2019-04-05T09:35:33.560Z,91.13
2019-04-05T09:36:33.689Z,91.22
2019-04-05T09:37:33.884Z,91.03
2019-04-05T09:38:34.067Z,91.22
2019-04-05T09:39:34.256Z,91.03
2019-04-05T09:40:34.235Z,91.13
2019-04-05T09:41:34.461Z,91.99
2019-04-05T09:42:34.631Z,91.03
2019-04-05T09:43:34.851Z,91.70
2019-04-05T09:44:34.934Z,91.51
2019-04-05T09:45:34.990Z,91.31
2019-04-05T09:46:45.974Z,90.75
2019-04-05T09:47:35.465Z,90.94
2019-04-05T09:48:35.457Z,90.65
2019-04-05T09:49:37.106Z,91.41
2019-04-05T09:50:35.796Z,91.51
2019-04-05T09:51:36.917Z,91.13
2019-04-05T09:52:39.888Z,90.46
2019-04-05T09:53:36.375Z,90.50
2019-04-05T09:54:36.512Z,90.56
2019-04-05T09:55:37.044Z,90.65
2019-04-05T09:56:37.230Z,91.03
2019-04-05T09:57:37.007Z,91.31
2019-04-05T09:58:37.354Z,91.41
2019-04-05T09:59:37.291Z,91.27
2019-04-05T10:00:39.518Z,91.41
2019-04-05T10:01:37.637Z,91.41
2019-04-05T10:02:37.807Z,91.70
2019-04-05T10:03:38.004Z,91.22
2019-04-05T10:04:38.067Z,91.13
2019-04-05T10:05:38.380Z,91.79
2019-04-05T10:06:38.540Z,91.89
2019-04-05T10:07:48.731Z,91.60
2019-04-05T10:08:38.955Z,91.22
2019-04-05T10:09:39.051Z,91.41
2019-04-05T10:10:39.264Z,91.70
2019-04-05T10:11:39.426Z,91.51
2019-04-05T10:12:39.612Z,91.41
2019-04-05T10:13:39.655Z,91.22
2019-04-05T10:14:39.932Z,91.41
2019-04-05T10:15:40.109Z,91.13
2019-04-05T10:16:40.310Z,91.41
2019-04-05T10:17:40.417Z,91.31
2019-04-05T10:18:40.548Z,91.46
2019-04-05T10:19:49.878Z,90.89
2019-04-05T10:20:41.316Z,91.74
2019-04-05T10:21:41.073Z,91.46
2019-04-05T10:22:41.623Z,91.03
2019-04-05T10:23:41.517Z,91.65
2019-04-05T10:24:41.575Z,91.41
2019-04-05T10:25:43.943Z,91.46
2019-04-05T10:26:41.828Z,91.55
2019-04-05T10:27:41.986Z,91.74
2019-04-05T10:28:42.262Z,91.36
2019-04-05T10:29:42.368Z,92.32
2019-04-05T10:30:42.539Z,91.84
2019-04-05T10:31:42.842Z,92.32
2019-04-05T10:32:45.829Z,92.22
2019-04-05T10:33:43.055Z,92.03
2019-04-05T10:34:43.256Z,92.03
2019-04-05T10:35:43.396Z,91.65
2019-04-05T10:36:43.537Z,92.41
2019-04-05T10:37:43.698Z,91.65
2019-04-05T10:38:43.861Z,91.84
2019-04-05T10:39:44.043Z,92.03
2019-04-05T10:40:44.108Z,92.03
2019-04-05T10:41:44.366Z,92.60
2019-04-05T10:42:45.800Z,92.13
2019-04-05T10:43:44.862Z,93.08
2019-04-05T10:44:44.915Z,92.79
2019-04-05T10:45:45.082Z,92.98
2019-04-05T10:46:45.266Z,93.27
2019-04-05T10:47:45.446Z,92.50
2019-04-05T10:48:45.623Z,92.03
2019-04-05T10:49:45.795Z,91.89
2019-04-05T10:50:46.053Z,92.03
2019-04-05T10:51:46.221Z,92.60
2019-04-05T10:52:46.253Z,92.50
2019-04-05T10:53:46.418Z,92.50
2019-04-05T10:54:46.563Z,92.60
2019-04-05T10:55:46.725Z,92.50
2019-04-05T10:56:46.854Z,92.41
2019-04-05T10:57:46.988Z,92.41
2019-04-05T10:58:47.203Z,92.69
2019-04-05T10:59:47.330Z,93.17
2019-04-05T11:00:47.468Z,93.37
2019-04-05T11:01:47.635Z,93.37
2019-04-05T11:02:47.814Z,93.17
2019-04-05T11:03:48.011Z,93.46
2019-04-05T11:04:48.181Z,93.65
2019-04-05T11:05:49.468Z,93.37
2019-04-05T11:06:48.509Z,93.93
2019-04-05T11:07:48.665Z,94.03
2019-04-05T11:08:48.848Z,94.79
2019-04-05T11:09:48.982Z,94.60
2019-04-05T11:10:49.124Z,94.60
2019-04-05T11:11:49.236Z,94.70
2019-04-05T11:12:50.206Z,94.79
2019-04-05T11:13:49.604Z,94.89
2019-04-05T11:14:49.816Z,93.93
2019-04-05T11:15:49.873Z,94.03
2019-04-05T11:16:58.393Z,94.60
2019-04-05T11:17:50.342Z,93.98
2019-04-05T11:18:50.378Z,94.37
2019-04-05T11:19:50.733Z,94.13
2019-04-05T11:20:51.001Z,93.98
2019-04-05T11:21:52.326Z,93.98
2019-04-05T11:22:51.428Z,94.08
2019-04-05T11:23:51.523Z,93.51
2019-04-05T11:24:51.458Z,93.32
2019-04-05T11:25:51.625Z,93.08
2019-04-05T11:26:51.786Z,92.88
2019-04-05T11:27:51.991Z,92.22
2019-04-05T11:28:52.120Z,92.69
2019-04-05T11:29:52.303Z,92.41
2019-04-05T11:30:52.516Z,90.88
2019-04-05T11:31:57.356Z,90.55
2019-04-05T11:32:52.888Z,89.40
2019-04-05T11:33:53.033Z,88.92
2019-04-05T11:34:53.115Z,89.50
2019-04-05T11:35:53.350Z,89.31
2019-04-05T11:36:53.515Z,89.21
2019-04-05T11:37:54.191Z,89.12
2019-04-05T11:38:54.325Z,89.21
2019-04-05T11:39:54.183Z,88.83
2019-04-05T11:40:54.236Z,89.12
2019-04-05T11:41:54.411Z,89.12
2019-04-05T11:42:54.558Z,89.12
2019-04-05T11:43:54.740Z,88.92
2019-04-05T11:44:54.908Z,88.45
2019-04-05T11:45:55.263Z,88.54
2019-04-05T11:46:56.272Z,88.73
2019-04-05T11:47:57.731Z,88.07
2019-04-05T11:48:55.793Z,87.63
2019-04-05T11:49:55.980Z,87.82
2019-04-05T11:50:56.121Z,87.25
2019-04-05T11:51:56.129Z,87.59
2019-04-05T11:52:56.146Z,87.82
2019-04-05T11:53:56.385Z,87.44
2019-04-05T11:54:56.485Z,87.35
2019-04-05T11:55:56.608Z,86.77
2019-04-05T11:56:56.770Z,87.15
2019-04-05T11:57:58.115Z,87.15
2019-04-05T11:58:57.352Z,86.87
2019-04-05T11:59:57.392Z,86.54
2019-04-05T12:00:57.527Z,87.35
2019-04-05T12:01:57.574Z,86.82
2019-04-05T12:02:57.763Z,87.44
2019-04-05T12:03:58.146Z,87.35
2019-04-05T12:04:58.735Z,87.25
2019-04-05T12:05:58.351Z,87.15
2019-04-05T12:06:58.452Z,86.49
2019-04-05T12:08:00.974Z,86.49
2019-04-05T12:08:59.357Z,86.30
2019-04-05T12:09:58.852Z,85.82
2019-04-05T12:10:59.789Z,85.34
2019-04-05T12:11:59.281Z,86.01
2019-04-05T12:12:59.329Z,86.01
2019-04-05T12:13:59.535Z,85.53
2019-04-05T12:14:59.764Z,85.63
2019-04-05T12:15:59.839Z,85.44
2019-04-05T12:17:00.020Z,85.91
2019-04-05T12:18:00.191Z,85.82
2019-04-05T12:19:00.319Z,85.72
2019-04-05T12:20:02.358Z,85.67
2019-04-05T12:21:02.757Z,85.34
2019-04-05T12:22:04.530Z,84.96
2019-04-05T12:23:00.917Z,84.58
2019-04-05T12:24:02.642Z,85.63
2019-04-05T12:25:02.851Z,85.67
2019-04-05T12:26:03.929Z,85.34
2019-04-05T12:27:04.433Z,85.44
2019-04-05T12:28:06.849Z,85.05
2019-04-05T12:29:03.627Z,84.67
2019-04-05T12:30:02.782Z,85.25
2019-04-05T12:31:02.659Z,85.34
2019-04-05T12:32:04.175Z,85.53
2019-04-05T12:33:13.587Z,85.34
2019-04-05T12:34:05.451Z,85.44
2019-04-05T12:35:08.110Z,85.34
2019-04-05T12:36:04.402Z,85.91
2019-04-05T12:37:06.342Z,86.68
2019-04-05T12:38:06.961Z,86.58
2019-04-05T12:39:07.654Z,86.39
2019-04-05T12:40:05.119Z,86.01
2019-04-05T12:41:04.107Z,86.20
2019-04-05T12:42:03.873Z,86.01
2019-04-05T12:43:05.273Z,85.91
2019-04-05T12:44:04.363Z,86.20
2019-04-05T12:45:04.389Z,85.48
2019-04-05T12:46:04.652Z,84.62
2019-04-05T12:47:05.491Z,84.43
2019-04-05T12:48:05.010Z,84.86
2019-04-05T12:49:05.164Z,84.77
2019-04-05T12:50:05.302Z,85.67
2019-04-05T12:51:05.911Z,84.86
2019-04-05T12:52:05.641Z,85.91
2019-04-05T12:53:05.768Z,85.34
2019-04-05T12:54:05.885Z,85.44
2019-04-05T12:55:06.030Z,85.15